Latest Weather Observations for Normanton

IDQ60801

Issued at 8:02 am EST Friday 22 October 2021 (issued every 10 minutes, with the page automatically refreshed every 10 minutes)

About weather observations | Map of weather stations | Latest weather observations for QLD | Other Formats
Station Details ID: 029063 Name: NORMANTON AIRPORT Lat: -17.69 Lon: 141.07 Height: 18.42 m
Data from the previous 72 hours. | See also: Recent months at Normanton
Date/Time
EST
Temp
°C
App
Temp
°C
Dew
Point
°C
Rel
Hum
%
Delta-T
°C
Wind Press
QNH
hPa
Press
MSL
hPa
Rain since
9am
mm
Dir  Spd
km/h
Gust
km/h
Spd
kts
Gust
kts
22/08:00am 30.3 33.8 24.9 73 3.8 N 15 22 8 12 1011.7 1011.5 0.0
22/07:30am 28.8 33.0 24.8 79 2.8 N 11 17 6 9 1011.3 1011.1 0.0
22/07:00am 27.4 31.6 24.1 82 2.3 N 9 13 5 7 1010.9 1010.7 0.0
22/06:30am 26.5 30.3 23.4 83 2.1 N 9 11 5 6 1010.5 1010.3 0.0
22/06:00am 26.2 30.0 22.7 81 2.4 NNW 7 9 4 5 1010.0 1009.8 0.0
22/05:30am 26.4 29.7 22.5 79 2.6 N 9 11 5 6 1009.8 1009.6 0.0
22/05:00am 26.5 29.8 22.6 79 2.6 N 9 11 5 6 1009.4 1009.2 0.0
22/04:30am 26.2 29.3 22.1 78 2.7 N 9 11 5 6 1009.1 1008.9 0.0
22/04:00am 26.1 28.9 21.5 76 3.1 NNW 9 11 5 6 1008.9 1008.7 0.0
22/03:30am 26.3 28.3 21.5 75 3.2 NNW 13 15 7 8 1008.6 1008.4 0.0
22/03:00am 26.3 27.6 20.8 71 3.6 NNW 15 19 8 10 1008.4 1008.2 0.0
22/02:30am 26.4 28.6 20.5 70 3.9 NNW 9 13 5 7 1008.2 1008.0 0.0
22/02:00am 26.9 29.5 20.0 66 4.5 N 6 9 3 5 1008.3 1008.1 0.0
22/01:30am 26.7 30.1 19.3 64 4.8 CALM 0 0 0 0 1008.5 1008.3 0.0
22/01:00am 27.2 30.6 19.3 62 5.1 CALM 0 0 0 0 1008.8 1008.6 0.0
22/12:30am 27.4 30.5 19.5 62 5.1 NE 2 9 1 5 1009.4 1009.2 0.0
22/12:00am 27.6 30.8 19.7 62 5.1 NE 2 7 1 4 1009.8 1009.6 0.0
 
Date/Time
EST
Temp
°C
App
Temp
°C
Dew
Point
°C
Rel
Hum
%
Delta-T
°C
Wind Press
QNH
hPa
Press
MSL
hPa
Rain since
9am
mm
Dir  Spd
km/h
Gust
km/h
Spd
kts
Gust
kts
21/11:30pm 28.0 30.4 20.0 61 5.2 ESE 7 15 4 8 1010.1 1009.9 0.0
21/11:00pm 28.0 30.7 20.6 64 4.9 E 7 11 4 6 1010.3 1010.1 0.0
21/10:30pm 28.2 31.0 20.5 63 5.1 E 6 11 3 6 1010.6 1010.4 0.0
21/10:00pm 28.6 31.3 20.6 62 5.3 ESE 7 11 4 6 1011.1 1010.9 0.0
21/09:30pm 28.7 31.3 20.4 60 5.5 E 7 11 4 6 1011.1 1010.9 0.0
21/09:00pm 28.6 30.3 20.9 63 5.1 E 13 24 7 13 1010.8 1010.6 0.0
21/08:30pm 27.7 30.2 22.4 73 3.6 ESE 13 19 7 10 1011.2 1011.0 0.0
21/08:00pm 27.8 30.6 21.6 69 4.2 N 9 13 5 7 1009.6 1009.4 0.0
21/07:30pm 27.5 30.2 22.2 73 3.6 W 11 20 6 11 1008.9 1008.7 0.0
21/07:00pm 27.5 29.6 22.4 73 3.5 WNW 15 22 8 12 1007.8 1007.6 0.0
21/06:30pm 27.6 27.7 21.9 71 3.8 WNW 24 32 13 17 1007.4 1007.2 0.0
21/06:00pm 27.9 29.1 20.7 65 4.8 WNW 15 19 8 10 1007.7 1007.5 0.0
21/05:30pm 28.0 27.9 19.5 60 5.5 W 19 28 10 15 1008.5 1008.3 0.0
21/05:00pm 29.5 28.3 19.2 54 6.7 WSW 24 32 13 17 1009.1 1008.9 0.0
21/04:30pm 31.1 31.1 20.1 52 7.3 WNW 20 30 11 16 1008.5 1008.3 0.0
21/04:00pm 31.5 31.0 19.2 48 8.1 W 20 30 11 16 1008.7 1008.5 0.0
21/03:30pm 32.7 29.9 17.3 39 9.8 NW 28 35 15 19 1007.7 1007.5 0.0
21/03:00pm 34.2 30.9 16.1 34 11.4 NW 28 35 15 19 1007.4 1007.2 0.0
21/02:30pm 35.6 32.8 15.3 29 12.7 NNW 24 32 13 17 1006.1 1005.9 0.0
21/02:00pm 36.4 33.3 14.4 27 13.7 NNW 24 33 13 18 1006.7 1006.5 0.0
21/01:30pm 37.3 33.0 12.0 22 15.2 NNW 26 35 14 19 1007.1 1006.9 0.0
21/01:00pm 37.1 33.7 13.8 25 14.4 NNW 24 32 13 17 1008.2 1008.0 0.0
21/12:30pm 37.0 34.2 14.3 26 14.1 NNW 22 35 12 19 1008.6 1008.4 0.0
21/12:00pm 36.2 34.6 16.4 31 12.6 NNW 20 30 11 16 1009.0 1008.8 0.0
21/11:30am 34.9 33.0 17.6 35 11.2 NW 24 35 13 19 1009.4 1009.2 0.0
21/11:00am 33.4 33.6 20.5 46 8.6 NNW 20 33 11 18 1009.9 1009.7 0.0
21/10:30am 34.2 33.8 20.9 45 9.0 NNW 24 33 13 18 1009.9 1009.7 0.0
21/10:00am 32.7 33.2 21.9 53 7.3 NNW 22 33 12 18 1010.2 1010.0 0.0
21/09:30am 32.5 33.4 23.4 58 6.3 NNW 24 35 13 19 1010.2 1010.0 0.0
21/09:00am 30.8 31.2 23.2 64 5.2 NNW 26 33 14 18 1010.3 1010.1 0.0
21/08:47am 30.8 33.4 24.0 67 4.7 NNW 17 26 9 14 1010.2 1010.0 0.0
21/08:30am 29.9 32.4 24.8 74 3.6 NNW 20 28 11 15 1010.2 1010.0 0.0
21/08:15am 29.7 32.8 25.4 78 3.0 N 19 24 10 13 1010.2 1010.0 0.0
21/08:08am 29.1 32.6 25.5 81 2.5 N 17 24 9 13 1010.0 1009.8 0.0
21/08:00am 28.7 32.8 25.7 84 2.1 N 15 19 8 10 1009.8 1009.6 0.0
21/07:30am 27.5 31.7 25.3 88 1.5 N 13 19 7 10 1009.5 1009.3 0.0
21/07:24am 27.3 31.9 25.3 89 1.4 N 11 17 6 9 1009.4 1009.2 0.0
21/07:00am 26.7 31.6 25.3 92 1.0 N 9 15 5 8 1009.0 1008.8 0.0
21/06:30am 26.2 31.5 25.3 95 0.6 N 7 13 4 7 1008.5 1008.3 0.0
21/06:00am 26.2 31.5 25.3 95 0.6 N 7 11 4 6 1008.1 1007.9 0.0
21/05:30am 26.3 31.3 25.4 95 0.6 NNE 9 13 5 7 1007.8 1007.6 0.0
21/05:00am 26.6 32.0 25.4 93 0.8 N 7 11 4 6 1007.5 1007.3 0.0
21/04:30am 26.9 32.3 25.5 92 1.0 N 7 9 4 5 1007.5 1007.3 0.0
21/04:04am 27.0 32.7 25.6 92 1.0 N 6 9 3 5 1007.3 1007.1 0.0
21/04:00am 26.9 32.2 25.3 91 1.1 N 7 9 4 5 1007.3 1007.1 0.0
21/03:30am 27.3 32.4 25.5 90 1.3 NNW 9 13 5 7 1007.3 1007.1 0.0
21/03:00am 27.5 32.6 25.5 89 1.4 NNW 9 13 5 7 1007.4 1007.2 0.0
21/02:52am 27.5 32.6 25.5 89 1.4 NNW 9 13 5 7 1007.5 1007.3 0.0
21/02:30am 27.5 31.7 25.3 88 1.5 NNW 13 17 7 9 1007.4 1007.2 0.0
21/02:00am 27.7 32.3 25.3 87 1.7 NNW 11 13 6 7 1007.8 1007.6 0.0
21/01:30am 27.6 32.1 25.2 87 1.7 NNW 11 15 6 8 1007.9 1007.7 0.0
21/01:00am 28.0 32.1 25.2 85 2.0 NNW 13 19 7 10 1008.1 1007.9 0.0
21/12:30am 28.1 31.9 24.7 82 2.4 NNW 13 19 7 10 1008.7 1008.5 0.0
21/12:00am 28.4 32.0 25.0 82 2.4 NNW 15 20 8 11 1008.9 1008.7 0.0
 
Date/Time
EST
Temp
°C
App
Temp
°C
Dew
Point
°C
Rel
Hum
%
Delta-T
°C
Wind Press
QNH
hPa
Press
MSL
hPa
Rain since
9am
mm
Dir  Spd
km/h
Gust
km/h
Spd
kts
Gust
kts
20/11:30pm 28.5 31.7 24.9 81 2.5 NNW 17 20 9 11 1009.0 1008.8 0.0
20/11:00pm 28.7 32.0 25.1 81 2.5 NNW 17 20 9 11 1009.1 1008.9 0.0
20/10:30pm 28.8 32.0 25.0 80 2.7 NNW 17 20 9 11 1009.0 1008.8 0.0
20/10:00pm 28.9 32.2 25.1 80 2.7 NNW 17 24 9 13 1009.0 1008.8 0.0
20/09:30pm 29.0 31.7 25.0 79 2.8 NNW 20 28 11 15 1009.1 1008.9 0.0
20/09:00pm 29.2 31.6 25.2 79 2.8 NNW 22 28 12 15 1009.1 1008.9 0.0
20/08:30pm 29.5 31.8 25.0 77 3.2 NNW 22 28 12 15 1009.0 1008.8 0.0
20/08:00pm 29.6 31.8 24.9 76 3.3 NNW 22 32 12 17 1008.8 1008.6 0.0
20/07:30pm 29.9 32.1 24.8 74 3.6 NNW 22 28 12 15 1008.7 1008.5 0.0
20/07:00pm 30.2 31.1 24.6 72 3.9 NNW 28 35 15 19 1008.4 1008.2 0.0
20/06:30pm 30.6 31.4 24.5 70 4.3 NW 28 35 15 19 1008.3 1008.1 0.0
20/06:00pm 31.1 31.0 24.2 66 4.8 NW 32 39 17 21 1008.2 1008.0 0.0
20/05:30pm 32.1 31.4 24.2 63 5.5 NW 35 44 19 24 1008.0 1007.8 0.0
20/05:00pm 32.9 32.4 23.8 58 6.4 NW 33 44 18 24 1007.9 1007.7 0.0
20/04:30pm 34.4 32.7 22.5 50 8.2 NW 35 44 19 24 1007.9 1007.7 0.0
20/04:00pm 34.5 32.3 20.8 44 9.2 NW 33 43 18 23 1008.0 1007.8 0.0
20/03:30pm 34.8 31.7 20.4 43 9.7 NW 37 44 20 24 1008.3 1008.1 0.0
20/03:00pm 34.9 32.2 19.7 41 10.1 NW 33 43 18 23 1008.6 1008.4 0.0
20/02:30pm 35.4 33.3 20.9 42 9.8 NNW 33 43 18 23 1008.9 1008.7 0.0
20/02:00pm 35.8 33.9 20.9 42 10.1 NNW 32 43 17 23 1009.3 1009.1 0.0
20/01:30pm 35.6 34.7 20.7 41 10.0 NW 26 35 14 19 1009.8 1009.6 0.0
20/01:00pm 34.9 34.1 21.6 46 9.1 NW 28 37 15 20 1010.3 1010.1 0.0
20/12:30pm 35.1 35.3 22.1 47 8.9 NW 24 37 13 20 1010.9 1010.7 0.0
20/12:00pm 35.2 35.1 22.2 47 8.9 NNW 26 37 14 20 1011.2 1011.0 0.0
20/11:30am 34.2 34.5 22.3 50 8.2 N 24 37 13 20 1011.6 1011.4 0.0
20/11:00am 34.2 34.9 21.6 47 8.6 NNW 20 32 11 17 1011.9 1011.7 0.0
20/10:30am 33.5 34.4 22.0 51 7.8 NNW 20 33 11 18 1012.2 1012.0 0.0
20/10:00am 32.4 33.9 23.1 58 6.4 NNW 20 30 11 16 1012.5 1012.3 0.0
20/09:30am 31.5 32.3 22.5 59 6.1 NNW 22 30 12 16 1012.7 1012.5 0.0
20/09:00am 30.3 33.0 24.2 70 4.2 NNW 17 24 9 13 1013.0 1012.8 0.0
20/08:30am 29.5 33.2 24.6 75 3.4 N 13 17 7 9 1013.1 1012.9 0.0
20/08:00am 28.9 32.0 24.2 76 3.3 NNW 15 20 8 11 1013.0 1012.8 0.0
20/07:30am 28.2 32.0 24.0 78 2.9 N 11 19 6 10 1012.6 1012.4 0.0
20/07:00am 27.0 30.7 23.3 80 2.5 NNW 9 13 5 7 1012.4 1012.2 0.0
20/06:30am 26.1 29.9 22.8 82 2.2 N 7 11 4 6 1012.1 1011.9 0.0
20/06:00am 26.0 29.4 22.7 82 2.2 NNE 9 13 5 7 1011.7 1011.5 0.0
20/05:30am 26.3 30.1 22.8 81 2.4 NNE 7 17 4 9 1011.5 1011.3 0.0
20/05:00am 25.6 29.1 22.1 81 2.3 WNW 7 15 4 8 1011.0 1010.8 0.0
20/04:30am 25.9 28.8 21.8 78 2.7 SW 9 11 5 6 1010.2 1010.0 0.0
20/04:00am 26.1 28.7 20.4 71 3.7 WSW 7 7 4 4 1010.0 1009.8 0.0
20/03:30am 26.5 29.8 20.8 71 3.8 WNW 4 6 2 3 1010.1 1009.9 0.0
20/03:00am 26.2 29.6 19.3 65 4.4 CALM 0 7 0 4 1010.2 1010.0 0.0
20/02:30am 27.0 30.3 19.1 62 5.1 CALM 0 0 0 0 1010.3 1010.1 0.0
20/02:00am 27.4 29.5 18.9 59 5.5 NW 6 7 3 4 1010.5 1010.3 0.0
20/01:30am 27.0 30.1 18.6 60 5.4 CALM 0 0 0 0 1010.5 1010.3 0.0
20/01:00am 28.3 29.8 19.0 57 6.0 WNW 9 13 5 7 1010.6 1010.4 0.0
20/12:30am 28.8 30.3 18.9 55 6.4 W 9 13 5 7 1010.7 1010.5 0.0
20/12:00am 29.3 29.7 18.1 51 7.2 W 13 17 7 9 1010.9 1010.7 0.0
 
Date/Time
EST
Temp
°C
App
Temp
°C
Dew
Point
°C
Rel
Hum
%
Delta-T
°C
Wind Press
QNH
hPa
Press
MSL
hPa
Rain since
9am
mm
Dir  Spd
km/h
Gust
km/h
Spd
kts
Gust
kts
19/11:30pm 30.0 29.6 17.1 46 8.1 WNW 15 20 8 11 1010.9 1010.7 0.0
19/11:00pm 30.2 28.8 16.6 44 8.5 WNW 19 26 10 14 1011.0 1010.8 0.0
19/10:30pm 30.5 30.7 15.8 41 9.1 WNW 9 13 5 7 1011.2 1011.0 0.0
19/10:00pm 31.7 32.4 15.6 37 10.0 N 6 7 3 4 1011.4 1011.2 0.0
19/09:30pm 31.8 31.7 14.9 36 10.4 S 9 11 5 6 1011.9 1011.7 0.0
19/09:00pm 31.9 30.7 17.4 42 9.3 S 20 33 11 18 1012.2 1012.0 0.0
19/08:30pm 30.8 30.7 18.8 48 7.8 NW 17 24 9 13 1011.1 1010.9 0.0
19/08:00pm 30.4 31.3 20.0 53 6.9 WSW 15 20 8 11 1011.7 1011.5 0.0
19/07:30pm 30.7 31.0 19.7 52 7.2 NW 17 20 9 11 1010.6 1010.4 0.0
19/07:00pm 31.2 30.9 19.2 48 7.8 NW 19 24 10 13 1010.2 1010.0 0.0
19/06:30pm 31.5 30.3 19.2 48 8.0 NW 24 30 13 16 1009.8 1009.6 0.0
19/06:00pm 32.4 30.0 18.2 42 9.2 NW 28 35 15 19 1009.3 1009.1 0.0
19/05:30pm 33.8 32.1 19.8 43 9.3 NW 28 35 15 19 1009.0 1008.8 0.0
19/05:00pm 35.3 32.2 17.5 34 11.5 NW 30 35 16 19 1009.1 1008.9 0.0
19/04:30pm 36.7 33.3 15.8 29 13.2 NW 28 33 15 18 1009.1 1008.9 0.0
19/04:00pm 37.2 33.2 11.9 22 15.2 NW 24 32 13 17 1009.2 1009.0 0.0
19/03:30pm 37.9 34.3 11.8 21 15.7 NW 22 32 12 17 1009.3 1009.1 0.0
19/03:00pm 37.0 34.2 13.1 24 14.6 NNW 20 30 11 16 1009.5 1009.3 0.0
19/02:30pm 37.6 35.8 16.0 28 13.8 NW 20 32 11 17 1010.0 1009.8 0.0
19/02:00pm 37.8 35.9 16.7 28 13.6 NW 22 32 12 17 1010.5 1010.3 0.0
19/01:30pm 37.0 35.3 18.1 33 12.4 NW 24 33 13 18 1010.9 1010.7 0.0
19/01:00pm 37.6 35.9 14.8 25 14.3 NW 17 33 9 18 1011.5 1011.3 0.0
19/12:30pm 36.5 35.7 17.1 31 12.5 NW 17 28 9 15 1012.1 1011.9 0.0
19/12:00pm 37.0 36.6 18.1 33 12.4 NW 17 28 9 15 1012.5 1012.3 0.0
19/11:30am 36.1 36.3 17.7 33 11.9 NNW 13 24 7 13 1013.1 1012.9 0.0
19/11:00am 34.7 35.5 17.4 35 11.1 NNW 9 15 5 8 1013.5 1013.3 0.0
19/10:30am 33.8 35.6 19.5 43 9.4 N 9 17 5 9 1014.0 1013.8 0.0
19/10:00am 32.6 34.5 20.5 49 8.1 NE 11 17 6 9 1014.2 1014.0 0.0
19/09:30am 31.6 33.7 21.7 55 6.7 NNE 13 20 7 11 1014.4 1014.2 0.0
19/09:00am 30.5 33.1 22.7 63 5.3 NNE 13 19 7 10 1014.4 1014.2 0.0
19/08:30am 29.6 32.5 23.8 71 4.0 NNE 15 24 8 13 1014.3 1014.1 0.0

Other formats

Comma delimited format used in spreadsheet applications
http://www.bom.gov.au/fwo/IDQ60801/IDQ60801.94266.axf

JavaScript Object Notation format (JSON) in row-major order
http://www.bom.gov.au/fwo/IDQ60801/IDQ60801.94266.json

Data quality

Most of these data are generated automatically and are frequently updated. Quality checks on data are not normally performed. It is possible for incorrect values to appear. Refer to information at About Latest Weather Observations and please check the disclaimer before using these data.